Pagina principale
METAR-TAF:

METAR-TAF

Aeroporti :

Kecskemét, Ungheria

latitudine: 46-55N, longitudine: 019-45E, altezza: 113 m

Osservazione

Il bollettino è stato emesso 22 minuti fa, alle 09:15 UTC
Vento 8 kt da sud-ovest, variando fra sud e ovest/nord-ovest
Temperature 24°C
Umidità 38%
Pressione 1020 hPa
Visibilità 10 km o più
nessuna nube inferiore a 1500 m e nessun cumulonembo

METAR: LHKE 290915Z 22008KT 180V290 CAVOK 24/09 Q1020 NOSIG RMK BLU

Ora: 11:37 (09:37 UTC)

Previsione

Il bollettino è stato emesso 1 ora e 22 minuti fa, alle 08:15 UTC
Previsione valida dal 29 alle 09 UTC al 29 alle 18 UTC
Vento 6 kt da sud-ovest
Visibilità 10 km o più
nessuna nube inferiore a 1500 m e nessun cumulonembo

TAF: LHKE 290815Z 2909/2918 23006KT CAVOK

Osservazioni e previsioni meteorologiche di più di 4000 aeroporti (messaggi METAR e TAF).

Le stazioni disponibili sono rappresentate dai dischi gialli e rossi sulla carta.

Puntare il mouse per vedere il nome della stazione.

Clicca sopra per visualizzare le osservazioni e previsioni meteorologiche.

Per cambiare la mappa : fare clic sui pulsanti verdi con una croce nera per ingrandire, il pulsante verde con un trattino per diminuire, o sulla freccia verde per le mappe adiacenti.


METAR-TAF: